Hovedside
METAR-TAF:

METAR-TAF

Lufthavner :

Halmstad, Sverige

Halmstad lufthavn

breddegrad: 56-41N, lengdegrad: 012-50E, høyde over havet: 30 m

Gjeldene værobservasjon

Denne rapporten ble laget for 30 minutter siden, klokken 18:20 UTC
Vind 3 kt fra Nord
Temperatur 12°C
Luftfuktighet 100%
Trykk 1021 hPa
Sikt 10 km eller mer
Brutte skyer i en høyde av 1100 ft
Overskyet i en høyde av 2000 ft

METAR: ESMT 221820Z 01003KT 9999 BKN011 OVC020 12/12 Q1021

Tid: 20:50 (18:50 UTC)

Varsel

Denne rapporten ble laget for 1 time og 53 minutter siden, klokken 16:57 UTC
Varsel gyldig fra 22. klokken 18 UTC til 22. klokken 21 UTC
Vind 5 kt fra Nord
Sikt 10 km eller mer
Brutte skyer i en høyde av 1800 ft
Midlertidig
fra 22. klokken 18 UTC til 22. klokken 21 UTC
Sikt: 3000 m
Brutte skyer i en høyde av 600 ft
lett regn, duskregn

TAF: ESMT 221657Z 2218/2221 01005KT 9999 BKN018 TEMPO 2218/2221 3000 -RADZ BKN006

Værobservasjoner og værvarsel for over 4000 flyplasser (METAR- og TAF-rapporter).

Tilgjengelige stasjoner er representert av de røde og gule prikkene på kartet.

Hold musepekeren over prikken for å se navnet på stasjonen.

Klikk så for å se værobservasjoner og -varsler.

For å forandre kartet kan du klikke på den grønne knappen med svart kryss for å zoome inn, på den grønne knappen med strek for å zoome ut, eller på de grønne pilene for å se tilstøtende kart.


METAR-TAF: